sensor_id;sensor_type;location;lat;lon;timestamp;temperature;humidity
27667;DHT22;15074;50.940;5.282;2023-07-20T00:00:26;15.50;99.90
27667;DHT22;15074;50.940;5.282;2023-07-20T00:02:51;15.40;99.90
27667;DHT22;15074;50.940;5.282;2023-07-20T00:05:17;15.50;99.90
27667;DHT22;15074;50.940;5.282;2023-07-20T00:07:50;15.30;99.90
27667;DHT22;15074;50.940;5.282;2023-07-20T00:10:17;15.30;99.90
27667;DHT22;15074;50.940;5.282;2023-07-20T00:12:43;15.20;99.90
27667;DHT22;15074;50.940;5.282;2023-07-20T00:15:13;15.20;99.90
27667;DHT22;15074;50.940;5.282;2023-07-20T00:17:39;15.30;99.90
27667;DHT22;15074;50.940;5.282;2023-07-20T00:20:06;15.30;99.90
27667;DHT22;15074;50.940;5.282;2023-07-20T00:22:32;15.30;99.90
27667;DHT22;15074;50.940;5.282;2023-07-20T00:24:57;15.20;99.90
27667;DHT22;15074;50.940;5.282;2023-07-20T00:27:23;15.20;99.90
27667;DHT22;15074;50.940;5.282;2023-07-20T00:29:48;15.30;99.90
27667;DHT22;15074;50.940;5.282;2023-07-20T00:32:14;15.30;99.90
27667;DHT22;15074;50.940;5.282;2023-07-20T00:34:40;15.30;99.90
27667;DHT22;15074;50.940;5.282;2023-07-20T00:37:05;15.30;99.90
27667;DHT22;15074;50.940;5.282;2023-07-20T00:39:31;15.20;99.90
27667;DHT22;15074;50.940;5.282;2023-07-20T00:41:57;15.30;99.90
27667;DHT22;15074;50.940;5.282;2023-07-20T00:44:22;15.30;99.90
27667;DHT22;15074;50.940;5.282;2023-07-20T00:46:48;15.20;99.90
27667;DHT22;15074;50.940;5.282;2023-07-20T00:49:15;15.20;99.90
27667;DHT22;15074;50.940;5.282;2023-07-20T00:51:41;15.30;99.90
27667;DHT22;15074;50.940;5.282;2023-07-20T00:54:07;15.40;99.90
27667;DHT22;15074;50.940;5.282;2023-07-20T00:56:33;15.40;99.90
27667;DHT22;15074;50.940;5.282;2023-07-20T00:58:59;15.40;99.90
27667;DHT22;15074;50.940;5.282;2023-07-20T01:01:25;15.40;99.90
27667;DHT22;15074;50.940;5.282;2023-07-20T01:03:51;15.50;99.90
27667;DHT22;15074;50.940;5.282;2023-07-20T01:09:20;15.40;99.90
27667;DHT22;15074;50.940;5.282;2023-07-20T01:12:09;15.50;99.90
27667;DHT22;15074;50.940;5.282;2023-07-20T01:14:36;15.50;99.90
27667;DHT22;15074;50.940;5.282;2023-07-20T01:17:03;15.60;99.90
27667;DHT22;15074;50.940;5.282;2023-07-20T01:19:28;15.70;99.90
27667;DHT22;15074;50.940;5.282;2023-07-20T01:22:16;15.60;99.90
27667;DHT22;15074;50.940;5.282;2023-07-20T01:33:20;15.60;99.90
27667;DHT22;15074;50.940;5.282;2023-07-20T01:35:58;15.50;99.90
27667;DHT22;15074;50.940;5.282;2023-07-20T01:38:25;15.60;99.90
27667;DHT22;15074;50.940;5.282;2023-07-20T01:40:52;15.60;99.90
27667;DHT22;15074;50.940;5.282;2023-07-20T01:43:18;15.60;99.90
27667;DHT22;15074;50.940;5.282;2023-07-20T01:45:44;15.70;99.90
27667;DHT22;15074;50.940;5.282;2023-07-20T01:48:10;15.60;99.90
27667;DHT22;15074;50.940;5.282;2023-07-20T01:50:36;15.60;99.90
27667;DHT22;15074;50.940;5.282;2023-07-20T01:53:02;15.60;99.90
27667;DHT22;15074;50.940;5.282;2023-07-20T01:55:27;15.60;99.90
27667;DHT22;15074;50.940;5.282;2023-07-20T01:57:55;15.60;99.90
27667;DHT22;15074;50.940;5.282;2023-07-20T02:00:21;15.50;99.90
27667;DHT22;15074;50.940;5.282;2023-07-20T02:02:49;15.50;99.90
27667;DHT22;15074;50.940;5.282;2023-07-20T02:05:15;15.40;99.90
27667;DHT22;15074;50.940;5.282;2023-07-20T02:07:41;15.40;99.90
27667;DHT22;15074;50.940;5.282;2023-07-20T02:10:06;15.40;99.90
27667;DHT22;15074;50.940;5.282;2023-07-20T02:12:32;15.40;99.90
27667;DHT22;15074;50.940;5.282;2023-07-20T02:14:58;15.40;99.90
27667;DHT22;15074;50.940;5.282;2023-07-20T02:17:23;15.40;99.90
27667;DHT22;15074;50.940;5.282;2023-07-20T02:19:53;15.50;99.90
27667;DHT22;15074;50.940;5.282;2023-07-20T02:22:18;15.50;99.90
27667;DHT22;15074;50.940;5.282;2023-07-20T02:24:44;15.50;99.90
27667;DHT22;15074;50.940;5.282;2023-07-20T02:27:10;15.50;99.90
27667;DHT22;15074;50.940;5.282;2023-07-20T02:29:35;15.50;99.90
27667;DHT22;15074;50.940;5.282;2023-07-20T02:32:01;15.50;99.90
27667;DHT22;15074;50.940;5.282;2023-07-20T02:34:27;15.50;99.90
27667;DHT22;15074;50.940;5.282;2023-07-20T02:36:54;15.50;99.90
27667;DHT22;15074;50.940;5.282;2023-07-20T02:39:22;15.40;99.90
27667;DHT22;15074;50.940;5.282;2023-07-20T02:41:47;15.40;99.90
27667;DHT22;15074;50.940;5.282;2023-07-20T02:44:14;15.30;99.90
27667;DHT22;15074;50.940;5.282;2023-07-20T02:46:39;15.30;99.90
27667;DHT22;15074;50.940;5.282;2023-07-20T02:49:05;15.20;99.90
27667;DHT22;15074;50.940;5.282;2023-07-20T02:51:31;15.10;99.90
27667;DHT22;15074;50.940;5.282;2023-07-20T02:53:56;15.10;99.90
27667;DHT22;15074;50.940;5.282;2023-07-20T02:56:22;15.10;99.90
27667;DHT22;15074;50.940;5.282;2023-07-20T02:58:48;15.10;99.90
27667;DHT22;15074;50.940;5.282;2023-07-20T03:01:14;15.00;99.90
27667;DHT22;15074;50.940;5.282;2023-07-20T03:03:41;15.00;99.90
27667;DHT22;15074;50.940;5.282;2023-07-20T03:06:11;14.90;99.90
27667;DHT22;15074;50.940;5.282;2023-07-20T03:08:37;14.80;99.90
27667;DHT22;15074;50.940;5.282;2023-07-20T03:11:02;14.90;99.90
27667;DHT22;15074;50.940;5.282;2023-07-20T03:13:28;14.80;99.90
27667;DHT22;15074;50.940;5.282;2023-07-20T03:15:53;14.90;99.90
27667;DHT22;15074;50.940;5.282;2023-07-20T03:18:19;14.80;99.90
27667;DHT22;15074;50.940;5.282;2023-07-20T03:20:45;14.90;99.90
27667;DHT22;15074;50.940;5.282;2023-07-20T03:23:11;14.90;99.90
27667;DHT22;15074;50.940;5.282;2023-07-20T03:25:37;14.70;99.90
27667;DHT22;15074;50.940;5.282;2023-07-20T03:28:04;14.60;99.90
27667;DHT22;15074;50.940;5.282;2023-07-20T03:30:29;14.50;99.90
27667;DHT22;15074;50.940;5.282;2023-07-20T03:32:55;14.40;99.90
27667;DHT22;15074;50.940;5.282;2023-07-20T03:35:21;14.50;99.90
27667;DHT22;15074;50.940;5.282;2023-07-20T03:37:46;14.60;99.90
27667;DHT22;15074;50.940;5.282;2023-07-20T03:40:12;14.70;99.90
27667;DHT22;15074;50.940;5.282;2023-07-20T03:42:37;14.80;99.90
27667;DHT22;15074;50.940;5.282;2023-07-20T03:45:05;15.00;99.90
27667;DHT22;15074;50.940;5.282;2023-07-20T03:47:31;15.10;99.90
27667;DHT22;15074;50.940;5.282;2023-07-20T03:49:57;15.20;99.90
27667;DHT22;15074;50.940;5.282;2023-07-20T03:52:23;15.30;99.90
27667;DHT22;15074;50.940;5.282;2023-07-20T03:54:49;15.40;99.90
27667;DHT22;15074;50.940;5.282;2023-07-20T03:57:16;15.50;99.90
27667;DHT22;15074;50.940;5.282;2023-07-20T03:59:45;15.60;99.90
27667;DHT22;15074;50.940;5.282;2023-07-20T04:02:11;15.60;99.90
27667;DHT22;15074;50.940;5.282;2023-07-20T04:04:37;15.60;99.90
27667;DHT22;15074;50.940;5.282;2023-07-20T04:07:03;15.50;99.90
27667;DHT22;15074;50.940;5.282;2023-07-20T04:09:31;15.40;99.90
27667;DHT22;15074;50.940;5.282;2023-07-20T04:11:56;15.30;99.90
27667;DHT22;15074;50.940;5.282;2023-07-20T04:14:22;15.30;99.90
27667;DHT22;15074;50.940;5.282;2023-07-20T04:16:48;15.20;99.90
27667;DHT22;15074;50.940;5.282;2023-07-20T04:19:13;15.20;99.90
27667;DHT22;15074;50.940;5.282;2023-07-20T04:21:42;15.30;99.90
27667;DHT22;15074;50.940;5.282;2023-07-20T04:24:07;15.20;99.90
27667;DHT22;15074;50.940;5.282;2023-07-20T04:26:33;15.20;99.90
27667;DHT22;15074;50.940;5.282;2023-07-20T04:28:59;15.10;99.90
27667;DHT22;15074;50.940;5.282;2023-07-20T04:31:25;15.20;99.90
27667;DHT22;15074;50.940;5.282;2023-07-20T04:33:50;15.30;99.90
27667;DHT22;15074;50.940;5.282;2023-07-20T04:36:16;15.20;99.90
27667;DHT22;15074;50.940;5.282;2023-07-20T04:38:45;15.20;99.90
27667;DHT22;15074;50.940;5.282;2023-07-20T04:41:11;15.20;99.90
27667;DHT22;15074;50.940;5.282;2023-07-20T04:43:44;15.40;99.90
27667;DHT22;15074;50.940;5.282;2023-07-20T04:46:12;15.40;99.90
27667;DHT22;15074;50.940;5.282;2023-07-20T04:48:38;15.60;99.90
27667;DHT22;15074;50.940;5.282;2023-07-20T04:51:04;15.60;99.90
27667;DHT22;15074;50.940;5.282;2023-07-20T04:53:29;15.70;99.90
27667;DHT22;15074;50.940;5.282;2023-07-20T04:55:56;15.60;99.90
27667;DHT22;15074;50.940;5.282;2023-07-20T04:58:22;15.80;99.90
27667;DHT22;15074;50.940;5.282;2023-07-20T05:00:49;15.90;99.90
27667;DHT22;15074;50.940;5.282;2023-07-20T05:03:14;16.00;99.90
27667;DHT22;15074;50.940;5.282;2023-07-20T05:05:40;16.20;99.90
27667;DHT22;15074;50.940;5.282;2023-07-20T05:08:06;16.30;99.90
27667;DHT22;15074;50.940;5.282;2023-07-20T05:10:31;16.10;99.90
27667;DHT22;15074;50.940;5.282;2023-07-20T05:12:58;16.10;99.90
27667;DHT22;15074;50.940;5.282;2023-07-20T05:15:24;16.20;99.90
27667;DHT22;15074;50.940;5.282;2023-07-20T05:17:49;16.30;99.90
27667;DHT22;15074;50.940;5.282;2023-07-20T05:20:15;16.50;99.90
27667;DHT22;15074;50.940;5.282;2023-07-20T05:22:41;16.60;99.90
27667;DHT22;15074;50.940;5.282;2023-07-20T05:25:08;16.50;99.90
27667;DHT22;15074;50.940;5.282;2023-07-20T05:27:36;16.50;99.90
27667;DHT22;15074;50.940;5.282;2023-07-20T05:30:03;16.80;99.90
27667;DHT22;15074;50.940;5.282;2023-07-20T05:32:28;17.10;99.90
27667;DHT22;15074;50.940;5.282;2023-07-20T05:34:54;17.20;99.90
27667;DHT22;15074;50.940;5.282;2023-07-20T05:37:20;17.10;99.90
27667;DHT22;15074;50.940;5.282;2023-07-20T05:39:46;17.20;99.90
27667;DHT22;15074;50.940;5.282;2023-07-20T05:42:12;17.30;99.90
27667;DHT22;15074;50.940;5.282;2023-07-20T05:44:37;17.60;99.90
27667;DHT22;15074;50.940;5.282;2023-07-20T05:47:04;17.50;99.90
27667;DHT22;15074;50.940;5.282;2023-07-20T05:49:29;17.50;99.90
27667;DHT22;15074;50.940;5.282;2023-07-20T05:51:56;17.50;99.90
27667;DHT22;15074;50.940;5.282;2023-07-20T05:54:24;17.50;99.90
27667;DHT22;15074;50.940;5.282;2023-07-20T05:56:49;17.60;99.90
27667;DHT22;15074;50.940;5.282;2023-07-20T05:59:15;17.70;99.90
27667;DHT22;15074;50.940;5.282;2023-07-20T06:01:41;18.00;99.90
27667;DHT22;15074;50.940;5.282;2023-07-20T06:04:07;18.30;99.90
27667;DHT22;15074;50.940;5.282;2023-07-20T06:06:33;18.40;99.90
27667;DHT22;15074;50.940;5.282;2023-07-20T06:09:00;18.40;99.90
27667;DHT22;15074;50.940;5.282;2023-07-20T06:11:29;18.80;99.90
27667;DHT22;15074;50.940;5.282;2023-07-20T06:13:56;19.00;99.90
27667;DHT22;15074;50.940;5.282;2023-07-20T06:16:22;19.10;99.90
27667;DHT22;15074;50.940;5.282;2023-07-20T06:18:48;18.90;99.90
27667;DHT22;15074;50.940;5.282;2023-07-20T06:21:13;18.80;99.90
27667;DHT22;15074;50.940;5.282;2023-07-20T06:23:40;18.60;99.90
27667;DHT22;15074;50.940;5.282;2023-07-20T06:26:06;18.70;99.90
27667;DHT22;15074;50.940;5.282;2023-07-20T06:28:33;18.60;99.90
27667;DHT22;15074;50.940;5.282;2023-07-20T06:31:00;18.50;99.90
27667;DHT22;15074;50.940;5.282;2023-07-20T06:33:26;18.50;99.90
27667;DHT22;15074;50.940;5.282;2023-07-20T06:35:52;18.40;99.90
27667;DHT22;15074;50.940;5.282;2023-07-20T06:38:18;18.20;99.90
27667;DHT22;15074;50.940;5.282;2023-07-20T06:40:46;18.40;99.90
27667;DHT22;15074;50.940;5.282;2023-07-20T06:43:12;18.50;99.90
27667;DHT22;15074;50.940;5.282;2023-07-20T06:45:37;18.70;99.90
27667;DHT22;15074;50.940;5.282;2023-07-20T06:48:04;19.00;99.90
27667;DHT22;15074;50.940;5.282;2023-07-20T06:50:29;19.10;99.90
27667;DHT22;15074;50.940;5.282;2023-07-20T06:52:55;19.10;99.90
27667;DHT22;15074;50.940;5.282;2023-07-20T06:55:21;19.10;99.90
27667;DHT22;15074;50.940;5.282;2023-07-20T06:57:46;19.10;99.90
27667;DHT22;15074;50.940;5.282;2023-07-20T07:00:13;19.30;99.90
27667;DHT22;15074;50.940;5.282;2023-07-20T07:02:39;19.60;99.90
27667;DHT22;15074;50.940;5.282;2023-07-20T07:05:05;20.00;99.90
27667;DHT22;15074;50.940;5.282;2023-07-20T07:07:31;20.30;99.90
27667;DHT22;15074;50.940;5.282;2023-07-20T07:09:57;20.10;99.90
27667;DHT22;15074;50.940;5.282;2023-07-20T07:12:23;19.90;99.90
27667;DHT22;15074;50.940;5.282;2023-07-20T07:14:49;19.90;99.90
27667;DHT22;15074;50.940;5.282;2023-07-20T07:17:14;19.60;99.90
27667;DHT22;15074;50.940;5.282;2023-07-20T07:19:40;19.60;99.90
27667;DHT22;15074;50.940;5.282;2023-07-20T07:22:06;19.50;99.90
27667;DHT22;15074;50.940;5.282;2023-07-20T07:24:31;19.50;99.90
27667;DHT22;15074;50.940;5.282;2023-07-20T07:27:00;19.30;99.90
27667;DHT22;15074;50.940;5.282;2023-07-20T07:29:26;19.30;99.90
27667;DHT22;15074;50.940;5.282;2023-07-20T07:31:52;19.50;99.90
27667;DHT22;15074;50.940;5.282;2023-07-20T07:34:18;19.30;99.90
27667;DHT22;15074;50.940;5.282;2023-07-20T07:36:44;19.40;99.90
27667;DHT22;15074;50.940;5.282;2023-07-20T07:39:10;19.40;99.90
27667;DHT22;15074;50.940;5.282;2023-07-20T07:41:36;19.70;99.90
27667;DHT22;15074;50.940;5.282;2023-07-20T07:44:01;19.80;99.90
27667;DHT22;15074;50.940;5.282;2023-07-20T07:46:27;20.20;99.90
27667;DHT22;15074;50.940;5.282;2023-07-20T07:48:53;20.20;99.90
27667;DHT22;15074;50.940;5.282;2023-07-20T07:51:19;20.90;99.90
27667;DHT22;15074;50.940;5.282;2023-07-20T07:53:46;21.30;99.90
27667;DHT22;15074;50.940;5.282;2023-07-20T07:56:12;21.40;99.90
27667;DHT22;15074;50.940;5.282;2023-07-20T07:58:38;22.00;99.90
27667;DHT22;15074;50.940;5.282;2023-07-20T08:01:04;22.80;99.90
27667;DHT22;15074;50.940;5.282;2023-07-20T08:03:29;23.10;99.90
27667;DHT22;15074;50.940;5.282;2023-07-20T08:05:55;22.90;99.90
27667;DHT22;15074;50.940;5.282;2023-07-20T08:08:22;22.00;99.90
27667;DHT22;15074;50.940;5.282;2023-07-20T08:10:48;22.70;99.90
27667;DHT22;15074;50.940;5.282;2023-07-20T08:13:14;22.80;99.90
27667;DHT22;15074;50.940;5.282;2023-07-20T08:15:41;23.00;99.90
27667;DHT22;15074;50.940;5.282;2023-07-20T08:18:07;22.90;99.90
27667;DHT22;15074;50.940;5.282;2023-07-20T08:20:33;22.70;99.90
27667;DHT22;15074;50.940;5.282;2023-07-20T08:23:01;22.80;99.90
27667;DHT22;15074;50.940;5.282;2023-07-20T08:25:26;23.20;99.90
27667;DHT22;15074;50.940;5.282;2023-07-20T08:27:52;22.70;99.90
27667;DHT22;15074;50.940;5.282;2023-07-20T08:30:21;22.40;99.90
27667;DHT22;15074;50.940;5.282;2023-07-20T08:32:47;22.70;99.90
27667;DHT22;15074;50.940;5.282;2023-07-20T08:35:12;22.90;99.90
27667;DHT22;15074;50.940;5.282;2023-07-20T08:37:38;23.10;99.90
27667;DHT22;15074;50.940;5.282;2023-07-20T08:40:04;23.80;99.90
27667;DHT22;15074;50.940;5.282;2023-07-20T08:42:33;23.60;99.90
27667;DHT22;15074;50.940;5.282;2023-07-20T08:44:59;24.00;99.90
27667;DHT22;15074;50.940;5.282;2023-07-20T08:47:26;23.20;99.90
27667;DHT22;15074;50.940;5.282;2023-07-20T08:49:52;24.50;99.90
27667;DHT22;15074;50.940;5.282;2023-07-20T08:52:18;25.40;99.90
27667;DHT22;15074;50.940;5.282;2023-07-20T08:54:46;26.50;99.90
27667;DHT22;15074;50.940;5.282;2023-07-20T08:57:13;27.10;99.90
27667;DHT22;15074;50.940;5.282;2023-07-20T08:59:40;27.10;99.90
27667;DHT22;15074;50.940;5.282;2023-07-20T09:02:08;27.30;99.90
27667;DHT22;15074;50.940;5.282;2023-07-20T09:04:39;26.50;99.90
27667;DHT22;15074;50.940;5.282;2023-07-20T09:07:05;26.60;99.90
27667;DHT22;15074;50.940;5.282;2023-07-20T09:09:31;26.50;99.90
27667;DHT22;15074;50.940;5.282;2023-07-20T09:11:56;27.40;99.90
27667;DHT22;15074;50.940;5.282;2023-07-20T09:14:23;26.60;99.90
27667;DHT22;15074;50.940;5.282;2023-07-20T09:16:53;25.80;99.90
27667;DHT22;15074;50.940;5.282;2023-07-20T09:19:19;26.40;99.90
27667;DHT22;15074;50.940;5.282;2023-07-20T09:21:48;27.70;99.90
27667;DHT22;15074;50.940;5.282;2023-07-20T09:24:16;27.90;99.90
27667;DHT22;15074;50.940;5.282;2023-07-20T09:26:43;27.60;99.90
27667;DHT22;15074;50.940;5.282;2023-07-20T09:29:09;26.70;99.90
27667;DHT22;15074;50.940;5.282;2023-07-20T09:31:35;27.00;99.90
27667;DHT22;15074;50.940;5.282;2023-07-20T09:34:01;28.50;99.90
27667;DHT22;15074;50.940;5.282;2023-07-20T09:36:28;27.50;99.90
27667;DHT22;15074;50.940;5.282;2023-07-20T09:38:54;26.30;99.90
27667;DHT22;15074;50.940;5.282;2023-07-20T09:41:21;25.40;99.90
27667;DHT22;15074;50.940;5.282;2023-07-20T09:43:47;25.50;99.90
27667;DHT22;15074;50.940;5.282;2023-07-20T09:46:13;26.70;99.90
27667;DHT22;15074;50.940;5.282;2023-07-20T09:48:39;27.50;99.90
27667;DHT22;15074;50.940;5.282;2023-07-20T09:51:06;28.50;99.90
27667;DHT22;15074;50.940;5.282;2023-07-20T09:53:33;30.00;99.90
27667;DHT22;15074;50.940;5.282;2023-07-20T09:56:00;29.90;99.90
27667;DHT22;15074;50.940;5.282;2023-07-20T09:58:26;29.00;99.90
27667;DHT22;15074;50.940;5.282;2023-07-20T10:00:55;27.10;99.90
27667;DHT22;15074;50.940;5.282;2023-07-20T10:03:26;26.20;99.90
27667;DHT22;15074;50.940;5.282;2023-07-20T10:06:00;26.50;99.90
27667;DHT22;15074;50.940;5.282;2023-07-20T10:08:30;27.20;99.90
27667;DHT22;15074;50.940;5.282;2023-07-20T10:10:59;27.80;99.90
27667;DHT22;15074;50.940;5.282;2023-07-20T10:13:27;27.80;99.90
27667;DHT22;15074;50.940;5.282;2023-07-20T10:15:57;27.10;99.90
27667;DHT22;15074;50.940;5.282;2023-07-20T10:18:59;27.80;99.90
27667;DHT22;15074;50.940;5.282;2023-07-20T10:21:28;28.00;99.90
27667;DHT22;15074;50.940;5.282;2023-07-20T10:23:56;28.20;99.90
27667;DHT22;15074;50.940;5.282;2023-07-20T10:26:22;28.50;99.50
27667;DHT22;15074;50.940;5.282;2023-07-20T10:28:47;28.90;99.60
27667;DHT22;15074;50.940;5.282;2023-07-20T10:31:14;29.30;98.70
27667;DHT22;15074;50.940;5.282;2023-07-20T10:33:41;30.00;96.90
27667;DHT22;15074;50.940;5.282;2023-07-20T10:36:07;28.90;96.00
27667;DHT22;15074;50.940;5.282;2023-07-20T10:41:22;29.80;97.10
27667;DHT22;15074;50.940;5.282;2023-07-20T10:43:54;29.10;96.50
27667;DHT22;15074;50.940;5.282;2023-07-20T10:49:05;31.10;95.30
27667;DHT22;15074;50.940;5.282;2023-07-20T10:51:56;31.00;93.70
27667;DHT22;15074;50.940;5.282;2023-07-20T10:56:50;29.50;95.10
27667;DHT22;15074;50.940;5.282;2023-07-20T10:59:41;29.40;94.60
27667;DHT22;15074;50.940;5.282;2023-07-20T11:02:06;30.30;93.40
27667;DHT22;15074;50.940;5.282;2023-07-20T11:04:39;30.70;92.70
27667;DHT22;15074;50.940;5.282;2023-07-20T11:07:06;31.60;91.70
27667;DHT22;15074;50.940;5.282;2023-07-20T11:09:37;31.70;90.70
27667;DHT22;15074;50.940;5.282;2023-07-20T11:12:17;31.70;89.00
27667;DHT22;15074;50.940;5.282;2023-07-20T11:14:56;30.60;90.30
27667;DHT22;15074;50.940;5.282;2023-07-20T11:17:32;28.90;91.60
27667;DHT22;15074;50.940;5.282;2023-07-20T11:20:02;29.20;91.70
27667;DHT22;15074;50.940;5.282;2023-07-20T11:22:30;28.60;90.90
27667;DHT22;15074;50.940;5.282;2023-07-20T11:24:57;28.30;93.30
27667;DHT22;15074;50.940;5.282;2023-07-20T11:27:23;29.70;94.10
27667;DHT22;15074;50.940;5.282;2023-07-20T11:29:49;29.60;93.10
27667;DHT22;15074;50.940;5.282;2023-07-20T11:32:23;30.20;91.90
27667;DHT22;15074;50.940;5.282;2023-07-20T11:34:49;28.60;92.80
27667;DHT22;15074;50.940;5.282;2023-07-20T11:37:15;27.80;95.10
27667;DHT22;15074;50.940;5.282;2023-07-20T11:39:42;27.40;95.90
27667;DHT22;15074;50.940;5.282;2023-07-20T11:42:08;27.80;94.10
27667;DHT22;15074;50.940;5.282;2023-07-20T11:44:34;27.80;94.00
27667;DHT22;15074;50.940;5.282;2023-07-20T11:47:04;27.20;95.30
27667;DHT22;15074;50.940;5.282;2023-07-20T11:49:41;26.70;95.60
27667;DHT22;15074;50.940;5.282;2023-07-20T11:52:10;27.60;95.20
27667;DHT22;15074;50.940;5.282;2023-07-20T11:54:38;28.00;95.30
27667;DHT22;15074;50.940;5.282;2023-07-20T11:57:05;28.40;93.90
27667;DHT22;15074;50.940;5.282;2023-07-20T11:59:32;28.50;93.20
27667;DHT22;15074;50.940;5.282;2023-07-20T12:02:02;28.10;94.30
27667;DHT22;15074;50.940;5.282;2023-07-20T12:04:29;27.70;95.50
27667;DHT22;15074;50.940;5.282;2023-07-20T12:06:55;27.20;95.10
27667;DHT22;15074;50.940;5.282;2023-07-20T12:09:21;26.50;96.20
27667;DHT22;15074;50.940;5.282;2023-07-20T12:11:49;26.40;96.10
27667;DHT22;15074;50.940;5.282;2023-07-20T12:14:15;26.70;96.00
27667;DHT22;15074;50.940;5.282;2023-07-20T12:16:41;27.10;95.10
27667;DHT22;15074;50.940;5.282;2023-07-20T12:19:10;27.70;94.40
27667;DHT22;15074;50.940;5.282;2023-07-20T12:21:38;28.20;94.10
27667;DHT22;15074;50.940;5.282;2023-07-20T12:24:04;28.50;93.30
27667;DHT22;15074;50.940;5.282;2023-07-20T12:26:31;29.30;92.80
27667;DHT22;15074;50.940;5.282;2023-07-20T12:28:57;29.50;91.60
27667;DHT22;15074;50.940;5.282;2023-07-20T12:31:24;30.30;90.50
27667;DHT22;15074;50.940;5.282;2023-07-20T12:33:51;30.20;90.60
27667;DHT22;15074;50.940;5.282;2023-07-20T12:36:17;29.20;89.90
27667;DHT22;15074;50.940;5.282;2023-07-20T12:38:43;28.70;91.10
27667;DHT22;15074;50.940;5.282;2023-07-20T12:41:10;28.80;92.00
27667;DHT22;15074;50.940;5.282;2023-07-20T12:43:43;29.20;91.70
27667;DHT22;15074;50.940;5.282;2023-07-20T12:46:10;28.70;91.60
27667;DHT22;15074;50.940;5.282;2023-07-20T12:48:37;28.30;92.00
27667;DHT22;15074;50.940;5.282;2023-07-20T12:51:05;28.20;91.90
27667;DHT22;15074;50.940;5.282;2023-07-20T12:53:32;28.30;91.30
27667;DHT22;15074;50.940;5.282;2023-07-20T12:55:58;29.40;90.80
27667;DHT22;15074;50.940;5.282;2023-07-20T12:58:24;29.20;91.70
27667;DHT22;15074;50.940;5.282;2023-07-20T13:00:50;28.80;90.90
27667;DHT22;15074;50.940;5.282;2023-07-20T13:03:15;28.40;91.30
27667;DHT22;15074;50.940;5.282;2023-07-20T13:05:44;28.00;92.70
27667;DHT22;15074;50.940;5.282;2023-07-20T13:08:10;27.70;92.20
27667;DHT22;15074;50.940;5.282;2023-07-20T13:10:36;27.60;92.60
27667;DHT22;15074;50.940;5.282;2023-07-20T13:13:02;27.00;93.50
27667;DHT22;15074;50.940;5.282;2023-07-20T13:15:32;26.80;93.70
27667;DHT22;15074;50.940;5.282;2023-07-20T13:17:59;26.80;93.10
27667;DHT22;15074;50.940;5.282;2023-07-20T13:20:25;26.80;93.60
27667;DHT22;15074;50.940;5.282;2023-07-20T13:22:51;26.70;92.70
27667;DHT22;15074;50.940;5.282;2023-07-20T13:25:17;26.20;92.10
27667;DHT22;15074;50.940;5.282;2023-07-20T13:27:44;26.00;92.80
27667;DHT22;15074;50.940;5.282;2023-07-20T13:30:10;26.10;93.00
27667;DHT22;15074;50.940;5.282;2023-07-20T13:32:44;26.40;93.10
27667;DHT22;15074;50.940;5.282;2023-07-20T13:35:13;27.00;92.00
27667;DHT22;15074;50.940;5.282;2023-07-20T13:37:39;26.40;92.00
27667;DHT22;15074;50.940;5.282;2023-07-20T13:40:06;26.20;92.60
27667;DHT22;15074;50.940;5.282;2023-07-20T13:42:32;26.70;90.00
27667;DHT22;15074;50.940;5.282;2023-07-20T13:44:58;27.90;90.20
27667;DHT22;15074;50.940;5.282;2023-07-20T13:47:24;28.60;90.10
27667;DHT22;15074;50.940;5.282;2023-07-20T13:49:49;28.00;90.10
27667;DHT22;15074;50.940;5.282;2023-07-20T13:52:15;27.60;91.20
27667;DHT22;15074;50.940;5.282;2023-07-20T13:54:41;28.20;91.10
27667;DHT22;15074;50.940;5.282;2023-07-20T13:57:06;28.80;89.00
27667;DHT22;15074;50.940;5.282;2023-07-20T13:59:32;29.10;88.20
27667;DHT22;15074;50.940;5.282;2023-07-20T14:01:58;29.20;83.50
27667;DHT22;15074;50.940;5.282;2023-07-20T14:04:23;29.60;81.60
27667;DHT22;15074;50.940;5.282;2023-07-20T14:06:49;29.00;81.20
27667;DHT22;15074;50.940;5.282;2023-07-20T14:09:15;29.00;84.30
27667;DHT22;15074;50.940;5.282;2023-07-20T14:11:41;28.80;84.20
27667;DHT22;15074;50.940;5.282;2023-07-20T14:14:06;29.50;81.20
27667;DHT22;15074;50.940;5.282;2023-07-20T14:16:32;29.10;84.70
27667;DHT22;15074;50.940;5.282;2023-07-20T14:18:58;29.90;80.60
27667;DHT22;15074;50.940;5.282;2023-07-20T14:21:24;30.90;78.80
27667;DHT22;15074;50.940;5.282;2023-07-20T14:23:51;30.10;79.90
27667;DHT22;15074;50.940;5.282;2023-07-20T14:26:18;29.50;79.80
27667;DHT22;15074;50.940;5.282;2023-07-20T14:28:44;30.10;81.30
27667;DHT22;15074;50.940;5.282;2023-07-20T14:31:10;28.00;80.20
27667;DHT22;15074;50.940;5.282;2023-07-20T14:33:35;26.30;86.20
27667;DHT22;15074;50.940;5.282;2023-07-20T14:36:02;26.30;89.50
27667;DHT22;15074;50.940;5.282;2023-07-20T14:38:31;26.70;87.90
27667;DHT22;15074;50.940;5.282;2023-07-20T14:40:57;27.10;87.20
27667;DHT22;15074;50.940;5.282;2023-07-20T14:43:23;27.30;84.50
27667;DHT22;15074;50.940;5.282;2023-07-20T14:45:49;27.40;85.30
27667;DHT22;15074;50.940;5.282;2023-07-20T14:48:14;27.50;87.10
27667;DHT22;15074;50.940;5.282;2023-07-20T14:50:40;27.30;84.60
27667;DHT22;15074;50.940;5.282;2023-07-20T14:53:06;27.70;84.00
27667;DHT22;15074;50.940;5.282;2023-07-20T14:55:33;28.00;84.90
27667;DHT22;15074;50.940;5.282;2023-07-20T14:57:58;28.30;85.40
27667;DHT22;15074;50.940;5.282;2023-07-20T15:00:24;28.70;84.60
27667;DHT22;15074;50.940;5.282;2023-07-20T15:02:51;28.50;84.40
27667;DHT22;15074;50.940;5.282;2023-07-20T15:05:24;28.20;86.20
27667;DHT22;15074;50.940;5.282;2023-07-20T15:07:52;28.30;85.40
27667;DHT22;15074;50.940;5.282;2023-07-20T15:10:18;28.30;87.70
27667;DHT22;15074;50.940;5.282;2023-07-20T15:12:43;28.30;87.40
27667;DHT22;15074;50.940;5.282;2023-07-20T15:15:10;28.40;86.80
27667;DHT22;15074;50.940;5.282;2023-07-20T15:17:37;28.10;89.20
27667;DHT22;15074;50.940;5.282;2023-07-20T15:20:05;27.80;90.30
27667;DHT22;15074;50.940;5.282;2023-07-20T15:22:35;27.90;90.80
27667;DHT22;15074;50.940;5.282;2023-07-20T15:25:07;27.80;91.20
27667;DHT22;15074;50.940;5.282;2023-07-20T15:27:34;27.50;91.20
27667;DHT22;15074;50.940;5.282;2023-07-20T15:30:00;27.00;92.10
27667;DHT22;15074;50.940;5.282;2023-07-20T15:32:25;26.90;92.30
27667;DHT22;15074;50.940;5.282;2023-07-20T15:34:51;26.90;92.90
27667;DHT22;15074;50.940;5.282;2023-07-20T15:37:17;26.30;94.00
27667;DHT22;15074;50.940;5.282;2023-07-20T15:39:43;25.90;95.10
27667;DHT22;15074;50.940;5.282;2023-07-20T15:42:08;25.90;95.40
27667;DHT22;15074;50.940;5.282;2023-07-20T15:44:34;25.50;95.40
27667;DHT22;15074;50.940;5.282;2023-07-20T15:47:00;25.90;95.40